sensor_id;sensor_type;location;lat;lon;timestamp;pressure;altitude;pressure_sealevel;temperature;humidity
34103;BME280;20381;54.498;18.206;2023-05-24T00:00:49;99432.38;;;15.77;54.91
34103;BME280;20381;54.498;18.206;2023-05-24T00:03:19;99432.45;;;15.70;54.96
34103;BME280;20381;54.498;18.206;2023-05-24T00:05:46;99425.97;;;15.68;55.03
34103;BME280;20381;54.498;18.206;2023-05-24T00:08:14;99428.75;;;15.72;55.46
34103;BME280;20381;54.498;18.206;2023-05-24T00:10:41;99431.89;;;15.77;55.57
34103;BME280;20381;54.498;18.206;2023-05-24T00:13:08;99433.84;;;15.86;55.92
34103;BME280;20381;54.498;18.206;2023-05-24T00:15:34;99427.56;;;15.76;55.26
34103;BME280;20381;54.498;18.206;2023-05-24T00:18:00;99428.83;;;15.47;55.51
34103;BME280;20381;54.498;18.206;2023-05-24T00:20:26;99430.78;;;15.37;55.93
34103;BME280;20381;54.498;18.206;2023-05-24T00:22:57;99432.80;;;15.34;56.03
34103;BME280;20381;54.498;18.206;2023-05-24T00:25:21;99434.12;;;15.34;56.21
34103;BME280;20381;54.498;18.206;2023-05-24T00:27:47;99441.75;;;15.31;56.21
34103;BME280;20381;54.498;18.206;2023-05-24T00:30:14;99438.19;;;15.32;56.45
34103;BME280;20381;54.498;18.206;2023-05-24T00:32:40;99437.23;;;15.33;56.39
34103;BME280;20381;54.498;18.206;2023-05-24T00:35:08;99443.55;;;15.31;56.53
34103;BME280;20381;54.498;18.206;2023-05-24T00:37:34;99446.30;;;15.29;56.63
34103;BME280;20381;54.498;18.206;2023-05-24T00:40:03;99448.93;;;15.29;56.91
34103;BME280;20381;54.498;18.206;2023-05-24T00:42:29;99437.45;;;15.30;57.05
34103;BME280;20381;54.498;18.206;2023-05-24T00:44:55;99441.88;;;15.30;57.19
34103;BME280;20381;54.498;18.206;2023-05-24T00:47:22;99439.34;;;15.28;57.29
34103;BME280;20381;54.498;18.206;2023-05-24T00:49:48;99438.41;;;15.29;57.40
34103;BME280;20381;54.498;18.206;2023-05-24T00:52:15;99432.70;;;15.35;57.51
34103;BME280;20381;54.498;18.206;2023-05-24T00:54:42;99428.02;;;15.33;57.23
34103;BME280;20381;54.498;18.206;2023-05-24T00:57:09;99430.63;;;15.15;57.43
34103;BME280;20381;54.498;18.206;2023-05-24T00:59:40;99427.70;;;15.07;57.74
34103;BME280;20381;54.498;18.206;2023-05-24T01:02:07;99422.96;;;15.12;57.74
34103;BME280;20381;54.498;18.206;2023-05-24T01:04:33;99423.27;;;15.02;57.58
34103;BME280;20381;54.498;18.206;2023-05-24T01:07:12;99420.91;;;14.91;58.09
34103;BME280;20381;54.498;18.206;2023-05-24T01:21:05;99412.70;;;14.96;58.79
34103;BME280;20381;54.498;18.206;2023-05-24T01:26:36;99413.11;;;15.03;59.04
34103;BME280;20381;54.498;18.206;2023-05-24T01:28:53;99411.12;;;15.12;59.06
34103;BME280;20381;54.498;18.206;2023-05-24T01:31:21;99413.41;;;15.11;59.00
34103;BME280;20381;54.498;18.206;2023-05-24T01:33:47;99409.52;;;15.04;59.03
34103;BME280;20381;54.498;18.206;2023-05-24T01:36:13;99412.36;;;15.00;59.10
34103;BME280;20381;54.498;18.206;2023-05-24T01:38:40;99413.32;;;14.99;59.28
34103;BME280;20381;54.498;18.206;2023-05-24T01:41:21;99420.25;;;15.00;59.19
34103;BME280;20381;54.498;18.206;2023-05-24T01:43:58;99421.43;;;14.96;59.10
34103;BME280;20381;54.498;18.206;2023-05-24T01:46:28;99420.91;;;14.91;59.15
34103;BME280;20381;54.498;18.206;2023-05-24T01:49:05;99420.55;;;14.90;59.27
34103;BME280;20381;54.498;18.206;2023-05-24T01:51:39;99430.41;;;14.87;59.26
34103;BME280;20381;54.498;18.206;2023-05-24T01:54:08;99431.52;;;14.90;59.52
34103;BME280;20381;54.498;18.206;2023-05-24T01:56:35;99439.30;;;14.91;59.46
34103;BME280;20381;54.498;18.206;2023-05-24T01:59:03;99441.62;;;14.83;59.27
34103;BME280;20381;54.498;18.206;2023-05-24T02:01:31;99439.64;;;14.74;59.42
34103;BME280;20381;54.498;18.206;2023-05-24T02:04:05;99433.50;;;14.68;59.55
34103;BME280;20381;54.498;18.206;2023-05-24T02:06:28;99433.33;;;14.64;59.56
34103;BME280;20381;54.498;18.206;2023-05-24T02:08:58;99435.03;;;14.65;59.82
34103;BME280;20381;54.498;18.206;2023-05-24T02:11:24;99435.17;;;14.69;59.90
34103;BME280;20381;54.498;18.206;2023-05-24T02:13:51;99437.58;;;14.72;59.85
34103;BME280;20381;54.498;18.206;2023-05-24T02:16:17;99438.47;;;14.78;59.99
34103;BME280;20381;54.498;18.206;2023-05-24T02:18:43;99436.37;;;14.83;60.00
34103;BME280;20381;54.498;18.206;2023-05-24T02:21:14;99447.28;;;14.90;60.08
34103;BME280;20381;54.498;18.206;2023-05-24T02:23:39;99437.42;;;14.93;60.11
34103;BME280;20381;54.498;18.206;2023-05-24T02:26:07;99443.20;;;14.98;60.20
34103;BME280;20381;54.498;18.206;2023-05-24T02:28:36;99442.38;;;15.04;60.26
34103;BME280;20381;54.498;18.206;2023-05-24T02:31:04;99440.84;;;15.07;60.11
34103;BME280;20381;54.498;18.206;2023-05-24T02:33:30;99439.75;;;15.04;60.12
34103;BME280;20381;54.498;18.206;2023-05-24T02:35:59;99443.70;;;15.04;60.28
34103;BME280;20381;54.498;18.206;2023-05-24T02:38:30;99439.39;;;15.03;60.28
34103;BME280;20381;54.498;18.206;2023-05-24T02:40:57;99445.09;;;14.96;60.12
34103;BME280;20381;54.498;18.206;2023-05-24T02:43:25;99443.16;;;14.80;60.25
34103;BME280;20381;54.498;18.206;2023-05-24T02:45:53;99449.41;;;14.72;60.35
34103;BME280;20381;54.498;18.206;2023-05-24T02:48:22;99449.77;;;14.73;60.66
34103;BME280;20381;54.498;18.206;2023-05-24T02:50:51;99447.47;;;14.68;60.55
34103;BME280;20381;54.498;18.206;2023-05-24T02:53:15;99444.28;;;14.70;60.74
34103;BME280;20381;54.498;18.206;2023-05-24T02:55:41;99454.66;;;14.72;60.75
34103;BME280;20381;54.498;18.206;2023-05-24T02:58:09;99457.08;;;14.75;60.94
34103;BME280;20381;54.498;18.206;2023-05-24T03:00:37;99463.82;;;14.79;61.23
34103;BME280;20381;54.498;18.206;2023-05-24T03:03:03;99468.44;;;14.88;61.39
34103;BME280;20381;54.498;18.206;2023-05-24T03:05:29;99465.59;;;14.91;61.27
34103;BME280;20381;54.498;18.206;2023-05-24T03:07:55;99466.34;;;14.93;61.23
34103;BME280;20381;54.498;18.206;2023-05-24T03:10:23;99463.70;;;14.93;61.30
34103;BME280;20381;54.498;18.206;2023-05-24T03:12:49;99464.23;;;14.98;61.35
34103;BME280;20381;54.498;18.206;2023-05-24T03:15:19;99463.63;;;15.00;61.41
34103;BME280;20381;54.498;18.206;2023-05-24T03:17:45;99466.05;;;15.04;61.47
34103;BME280;20381;54.498;18.206;2023-05-24T03:20:11;99465.33;;;15.02;61.26
34103;BME280;20381;54.498;18.206;2023-05-24T03:22:38;99466.05;;;15.04;61.21
34103;BME280;20381;54.498;18.206;2023-05-24T03:25:05;99468.01;;;14.94;61.20
34103;BME280;20381;54.498;18.206;2023-05-24T03:27:34;99467.13;;;14.88;61.27
34103;BME280;20381;54.498;18.206;2023-05-24T03:30:03;99471.28;;;14.85;61.40
34103;BME280;20381;54.498;18.206;2023-05-24T03:32:31;99471.42;;;14.89;61.70
34103;BME280;20381;54.498;18.206;2023-05-24T03:34:58;99472.30;;;14.95;61.69
34103;BME280;20381;54.498;18.206;2023-05-24T03:37:26;99477.52;;;15.03;61.69
34103;BME280;20381;54.498;18.206;2023-05-24T03:39:53;99477.16;;;15.02;61.59
34103;BME280;20381;54.498;18.206;2023-05-24T03:42:19;99476.56;;;15.04;61.63
34103;BME280;20381;54.498;18.206;2023-05-24T03:44:47;99480.15;;;15.03;61.69
34103;BME280;20381;54.498;18.206;2023-05-24T03:47:13;99478.27;;;15.05;61.73
34103;BME280;20381;54.498;18.206;2023-05-24T03:49:39;99474.10;;;15.08;61.83
34103;BME280;20381;54.498;18.206;2023-05-24T03:52:05;99481.55;;;15.14;61.87
34103;BME280;20381;54.498;18.206;2023-05-24T03:54:31;99487.44;;;15.17;61.88
34103;BME280;20381;54.498;18.206;2023-05-24T03:56:58;99485.23;;;15.24;61.94
34103;BME280;20381;54.498;18.206;2023-05-24T03:59:24;99484.27;;;15.25;61.84
34103;BME280;20381;54.498;18.206;2023-05-24T04:01:50;99487.64;;;15.27;61.83
34103;BME280;20381;54.498;18.206;2023-05-24T04:04:17;99492.33;;;15.29;61.79
34103;BME280;20381;54.498;18.206;2023-05-24T04:06:43;99489.09;;;15.31;61.84
34103;BME280;20381;54.498;18.206;2023-05-24T04:09:09;99485.28;;;15.30;61.86
34103;BME280;20381;54.498;18.206;2023-05-24T04:11:35;99486.69;;;15.28;61.84
34103;BME280;20381;54.498;18.206;2023-05-24T04:14:02;99491.02;;;15.29;62.00
34103;BME280;20381;54.498;18.206;2023-05-24T04:16:28;99492.52;;;15.26;61.90
34103;BME280;20381;54.498;18.206;2023-05-24T04:18:56;99494.05;;;15.23;62.11
34103;BME280;20381;54.498;18.206;2023-05-24T04:21:25;99493.48;;;15.25;62.18
34103;BME280;20381;54.498;18.206;2023-05-24T04:23:53;99493.65;;;15.29;62.22
34103;BME280;20381;54.498;18.206;2023-05-24T04:26:25;99492.78;;;15.29;62.09
34103;BME280;20381;54.498;18.206;2023-05-24T04:28:50;99499.09;;;15.26;62.15
34103;BME280;20381;54.498;18.206;2023-05-24T04:31:17;99500.80;;;15.27;62.23
34103;BME280;20381;54.498;18.206;2023-05-24T04:33:45;99498.73;;;15.25;62.25
34103;BME280;20381;54.498;18.206;2023-05-24T04:36:15;99497.29;;;15.21;62.27
34103;BME280;20381;54.498;18.206;2023-05-24T04:38:47;99494.01;;;15.17;62.33
34103;BME280;20381;54.498;18.206;2023-05-24T04:41:11;99496.19;;;15.18;62.53
34103;BME280;20381;54.498;18.206;2023-05-24T04:43:38;99493.34;;;15.21;62.63
34103;BME280;20381;54.498;18.206;2023-05-24T04:46:09;99490.71;;;15.21;62.68
34103;BME280;20381;54.498;18.206;2023-05-24T04:48:33;99500.05;;;15.25;62.77
34103;BME280;20381;54.498;18.206;2023-05-24T04:50:59;99505.48;;;15.29;62.93
34103;BME280;20381;54.498;18.206;2023-05-24T04:53:25;99509.47;;;15.35;62.88
34103;BME280;20381;54.498;18.206;2023-05-24T04:55:52;99510.44;;;15.39;62.94
34103;BME280;20381;54.498;18.206;2023-05-24T04:58:20;99508.23;;;15.46;62.88
34103;BME280;20381;54.498;18.206;2023-05-24T05:00:47;99505.92;;;15.41;62.90
34103;BME280;20381;54.498;18.206;2023-05-24T05:03:15;99518.24;;;15.41;63.04
34103;BME280;20381;54.498;18.206;2023-05-24T05:05:46;99520.97;;;15.39;63.05
34103;BME280;20381;54.498;18.206;2023-05-24T05:08:12;99517.77;;;15.41;62.95
34103;BME280;20381;54.498;18.206;2023-05-24T05:10:39;99517.77;;;15.41;62.95
34103;BME280;20381;54.498;18.206;2023-05-24T05:13:06;99517.86;;;15.40;63.32
34103;BME280;20381;54.498;18.206;2023-05-24T05:15:36;99521.58;;;15.43;63.24
34103;BME280;20381;54.498;18.206;2023-05-24T05:18:04;99529.73;;;15.45;63.33
34103;BME280;20381;54.498;18.206;2023-05-24T05:20:30;99533.85;;;15.50;63.37
34103;BME280;20381;54.498;18.206;2023-05-24T05:22:56;99537.58;;;15.53;63.47
34103;BME280;20381;54.498;18.206;2023-05-24T05:25:24;99543.36;;;15.58;63.54
34103;BME280;20381;54.498;18.206;2023-05-24T05:27:50;99534.67;;;15.63;63.51
34103;BME280;20381;54.498;18.206;2023-05-24T05:30:18;99542.70;;;15.67;63.48
34103;BME280;20381;54.498;18.206;2023-05-24T05:32:46;99551.78;;;15.63;63.27
34103;BME280;20381;54.498;18.206;2023-05-24T05:35:13;99557.39;;;15.64;63.58
34103;BME280;20381;54.498;18.206;2023-05-24T05:37:39;99564.09;;;15.75;63.73
34103;BME280;20381;54.498;18.206;2023-05-24T05:40:11;99557.09;;;15.87;63.78
34103;BME280;20381;54.498;18.206;2023-05-24T05:42:37;99553.34;;;15.97;63.65
34103;BME280;20381;54.498;18.206;2023-05-24T05:45:06;99544.00;;;15.98;63.68
34103;BME280;20381;54.498;18.206;2023-05-24T05:47:35;99547.98;;;16.04;63.74
34103;BME280;20381;54.498;18.206;2023-05-24T05:50:04;99556.39;;;16.09;63.67
34103;BME280;20381;54.498;18.206;2023-05-24T05:52:34;99561.44;;;16.12;63.62
34103;BME280;20381;54.498;18.206;2023-05-24T05:55:00;99563.84;;;16.15;63.62
34103;BME280;20381;54.498;18.206;2023-05-24T05:57:26;99560.98;;;16.18;63.62
34103;BME280;20381;54.498;18.206;2023-05-24T05:59:53;99560.75;;;16.21;63.86
34103;BME280;20381;54.498;18.206;2023-05-24T06:02:19;99557.47;;;16.30;63.90
34103;BME280;20381;54.498;18.206;2023-05-24T06:04:48;99565.66;;;16.39;63.74
34103;BME280;20381;54.498;18.206;2023-05-24T06:07:14;99564.61;;;16.47;63.79
34103;BME280;20381;54.498;18.206;2023-05-24T06:09:40;99572.64;;;16.51;63.59
34103;BME280;20381;54.498;18.206;2023-05-24T06:12:08;99567.20;;;16.36;63.42
34103;BME280;20381;54.498;18.206;2023-05-24T06:14:35;99573.50;;;16.27;63.61
34103;BME280;20381;54.498;18.206;2023-05-24T06:17:04;99582.44;;;16.19;63.46
34103;BME280;20381;54.498;18.206;2023-05-24T06:19:31;99579.36;;;16.07;63.77
34103;BME280;20381;54.498;18.206;2023-05-24T06:21:58;99583.98;;;16.16;64.01
34103;BME280;20381;54.498;18.206;2023-05-24T06:24:25;99594.67;;;16.26;63.98
34103;BME280;20381;54.498;18.206;2023-05-24T06:26:53;99601.29;;;16.31;63.86
34103;BME280;20381;54.498;18.206;2023-05-24T06:29:20;99608.74;;;16.38;63.85
34103;BME280;20381;54.498;18.206;2023-05-24T06:31:48;99605.53;;;16.40;63.99
34103;BME280;20381;54.498;18.206;2023-05-24T06:34:14;99614.22;;;16.53;64.10
34103;BME280;20381;54.498;18.206;2023-05-24T06:36:46;99626.13;;;16.64;63.79
34103;BME280;20381;54.498;18.206;2023-05-24T06:39:14;99622.17;;;16.64;63.86
34103;BME280;20381;54.498;18.206;2023-05-24T06:41:41;99620.05;;;16.69;63.82
34103;BME280;20381;54.498;18.206;2023-05-24T06:44:09;99624.94;;;16.68;63.70
34103;BME280;20381;54.498;18.206;2023-05-24T06:46:35;99622.22;;;16.75;63.91
34103;BME280;20381;54.498;18.206;2023-05-24T06:49:03;99629.05;;;16.72;63.77
34103;BME280;20381;54.498;18.206;2023-05-24T06:51:35;99622.07;;;16.71;63.64
34103;BME280;20381;54.498;18.206;2023-05-24T06:54:04;99624.70;;;16.71;63.50
34103;BME280;20381;54.498;18.206;2023-05-24T06:56:32;99634.04;;;16.64;63.45
34103;BME280;20381;54.498;18.206;2023-05-24T06:58:58;99630.41;;;16.60;63.89
34103;BME280;20381;54.498;18.206;2023-05-24T07:01:27;99637.45;;;16.77;63.94
34103;BME280;20381;54.498;18.206;2023-05-24T07:03:54;99641.02;;;16.95;63.87
34103;BME280;20381;54.498;18.206;2023-05-24T07:06:23;99641.91;;;17.12;63.93
34103;BME280;20381;54.498;18.206;2023-05-24T07:08:49;99638.06;;;17.16;63.34
34103;BME280;20381;54.498;18.206;2023-05-24T07:11:16;99643.84;;;17.21;63.67
34103;BME280;20381;54.498;18.206;2023-05-24T07:13:42;99646.71;;;17.18;63.20
34103;BME280;20381;54.498;18.206;2023-05-24T07:16:10;99650.28;;;17.06;63.03
34103;BME280;20381;54.498;18.206;2023-05-24T07:18:36;99643.89;;;16.92;63.02
34103;BME280;20381;54.498;18.206;2023-05-24T07:21:02;99643.39;;;16.87;63.03
34103;BME280;20381;54.498;18.206;2023-05-24T07:23:29;99647.62;;;16.95;63.20
34103;BME280;20381;54.498;18.206;2023-05-24T07:25:56;99647.38;;;16.98;63.07
34103;BME280;20381;54.498;18.206;2023-05-24T07:28:22;99642.96;;;17.04;62.87
34103;BME280;20381;54.498;18.206;2023-05-24T07:30:49;99649.31;;;17.07;62.87
34103;BME280;20381;54.498;18.206;2023-05-24T07:33:16;99658.20;;;17.06;62.99
34103;BME280;20381;54.498;18.206;2023-05-24T07:35:42;99652.45;;;17.12;62.92
34103;BME280;20381;54.498;18.206;2023-05-24T07:38:10;99649.48;;;17.17;62.81
34103;BME280;20381;54.498;18.206;2023-05-24T07:40:37;99656.53;;;17.16;62.70
34103;BME280;20381;54.498;18.206;2023-05-24T07:43:04;99648.52;;;17.23;62.78
34103;BME280;20381;54.498;18.206;2023-05-24T07:45:30;99655.86;;;17.26;62.57
34103;BME280;20381;54.498;18.206;2023-05-24T07:47:56;99656.09;;;17.22;62.67
34103;BME280;20381;54.498;18.206;2023-05-24T07:50:23;99658.95;;;17.31;62.87
34103;BME280;20381;54.498;18.206;2023-05-24T07:52:50;99670.74;;;17.38;62.76
34103;BME280;20381;54.498;18.206;2023-05-24T07:55:16;99675.44;;;17.40;62.78
34103;BME280;20381;54.498;18.206;2023-05-24T07:57:42;99669.67;;;17.46;62.83
34103;BME280;20381;54.498;18.206;2023-05-24T08:00:14;99674.74;;;17.66;62.83
34103;BME280;20381;54.498;18.206;2023-05-24T08:02:42;99676.83;;;17.96;63.24
34103;BME280;20381;54.498;18.206;2023-05-24T08:05:14;99677.02;;;18.38;63.12
34103;BME280;20381;54.498;18.206;2023-05-24T08:07:41;99683.78;;;18.80;63.08
34103;BME280;20381;54.498;18.206;2023-05-24T08:10:11;99679.80;;;19.33;63.06
34103;BME280;20381;54.498;18.206;2023-05-24T08:12:38;99680.80;;;19.84;62.52
34103;BME280;20381;54.498;18.206;2023-05-24T08:15:06;99677.97;;;20.31;62.14
34103;BME280;20381;54.498;18.206;2023-05-24T08:17:33;99677.84;;;20.77;62.13
34103;BME280;20381;54.498;18.206;2023-05-24T08:19:59;99687.47;;;21.37;62.12
34103;BME280;20381;54.498;18.206;2023-05-24T08:22:27;99685.09;;;22.60;63.98
34103;BME280;20381;54.498;18.206;2023-05-24T08:24:54;99676.45;;;24.78;63.67
34103;BME280;20381;54.498;18.206;2023-05-24T08:27:20;99673.58;;;26.84;61.97
34103;BME280;20381;54.498;18.206;2023-05-24T08:29:47;99676.36;;;27.85;59.61
34103;BME280;20381;54.498;18.206;2023-05-24T08:32:14;99677.62;;;28.19;58.33
34103;BME280;20381;54.498;18.206;2023-05-24T08:34:45;99671.75;;;29.14;57.93
34103;BME280;20381;54.498;18.206;2023-05-24T08:37:17;99678.71;;;29.93;57.57
34103;BME280;20381;54.498;18.206;2023-05-24T08:39:47;99674.33;;;30.64;56.36
34103;BME280;20381;54.498;18.206;2023-05-24T08:42:16;99683.34;;;30.60;54.73
34103;BME280;20381;54.498;18.206;2023-05-24T08:44:57;99681.78;;;30.99;54.53
34103;BME280;20381;54.498;18.206;2023-05-24T08:47:23;99675.47;;;32.27;54.49
34103;BME280;20381;54.498;18.206;2023-05-24T08:49:52;99673.97;;;33.58;53.61
34103;BME280;20381;54.498;18.206;2023-05-24T08:52:22;99672.22;;;34.38;51.91
34103;BME280;20381;54.498;18.206;2023-05-24T08:54:50;99676.85;;;35.21;49.29
34103;BME280;20381;54.498;18.206;2023-05-24T08:57:18;99680.78;;;34.95;47.62
34103;BME280;20381;54.498;18.206;2023-05-24T08:59:45;99682.45;;;34.96;47.24
34103;BME280;20381;54.498;18.206;2023-05-24T09:02:13;99685.95;;;34.54;46.51
34103;BME280;20381;54.498;18.206;2023-05-24T09:04:42;99691.30;;;34.13;45.10
34103;BME280;20381;54.498;18.206;2023-05-24T09:07:09;99684.09;;;33.29;43.43
34103;BME280;20381;54.498;18.206;2023-05-24T09:09:41;99688.92;;;32.41;43.87
34103;BME280;20381;54.498;18.206;2023-05-24T09:12:10;99689.73;;;32.48;43.28
34103;BME280;20381;54.498;18.206;2023-05-24T09:14:41;99691.69;;;32.27;42.55
34103;BME280;20381;54.498;18.206;2023-05-24T09:17:07;99696.80;;;31.77;41.53
34103;BME280;20381;54.498;18.206;2023-05-24T09:19:34;99693.94;;;30.62;41.56
34103;BME280;20381;54.498;18.206;2023-05-24T09:22:01;99696.80;;;30.23;41.10
34103;BME280;20381;54.498;18.206;2023-05-24T09:24:27;99694.08;;;29.53;40.67
34103;BME280;20381;54.498;18.206;2023-05-24T09:26:53;99695.67;;;29.19;40.83
34103;BME280;20381;54.498;18.206;2023-05-24T09:29:22;99697.38;;;28.63;40.19
34103;BME280;20381;54.498;18.206;2023-05-24T09:31:49;99701.89;;;28.37;40.82
34103;BME280;20381;54.498;18.206;2023-05-24T09:34:17;99698.23;;;28.74;40.43
34103;BME280;20381;54.498;18.206;2023-05-24T09:36:48;99698.70;;;28.73;40.20
34103;BME280;20381;54.498;18.206;2023-05-24T09:39:17;99704.75;;;28.97;39.99
34103;BME280;20381;54.498;18.206;2023-05-24T09:41:42;99706.52;;;29.05;40.06
34103;BME280;20381;54.498;18.206;2023-05-24T09:44:12;99704.66;;;29.16;39.79
34103;BME280;20381;54.498;18.206;2023-05-24T09:46:40;99711.13;;;28.96;39.70
34103;BME280;20381;54.498;18.206;2023-05-24T09:49:06;99711.78;;;28.98;39.45
34103;BME280;20381;54.498;18.206;2023-05-24T09:51:36;99714.08;;;28.69;39.32
34103;BME280;20381;54.498;18.206;2023-05-24T09:54:04;99710.87;;;28.69;39.52
34103;BME280;20381;54.498;18.206;2023-05-24T09:56:34;99715.59;;;28.67;39.29
34103;BME280;20381;54.498;18.206;2023-05-24T09:59:05;99716.94;;;28.67;39.48
34103;BME280;20381;54.498;18.206;2023-05-24T10:01:33;99709.98;;;28.84;39.65
34103;BME280;20381;54.498;18.206;2023-05-24T10:04:02;99716.61;;;29.63;39.48
34103;BME280;20381;54.498;18.206;2023-05-24T10:06:39;99715.20;;;29.84;39.62
34103;BME280;20381;54.498;18.206;2023-05-24T10:09:03;99712.61;;;30.70;39.79
34103;BME280;20381;54.498;18.206;2023-05-24T10:11:35;99714.39;;;32.13;40.04
34103;BME280;20381;54.498;18.206;2023-05-24T10:14:04;99709.06;;;34.18;39.71
34103;BME280;20381;54.498;18.206;2023-05-24T10:16:34;99702.84;;;35.64;38.90
34103;BME280;20381;54.498;18.206;2023-05-24T10:19:03;99703.20;;;36.32;37.87
34103;BME280;20381;54.498;18.206;2023-05-24T10:21:31;99703.17;;;37.51;38.30
34103;BME280;20381;54.498;18.206;2023-05-24T10:24:01;99702.38;;;39.17;38.07
34103;BME280;20381;54.498;18.206;2023-05-24T10:26:30;99694.36;;;41.74;36.99
34103;BME280;20381;54.498;18.206;2023-05-24T10:29:03;99687.23;;;42.82;35.23
34103;BME280;20381;54.498;18.206;2023-05-24T10:31:32;99697.17;;;43.95;34.21
34103;BME280;20381;54.498;18.206;2023-05-24T10:34:02;99692.41;;;43.76;32.61
34103;BME280;20381;54.498;18.206;2023-05-24T10:36:31;99692.98;;;43.20;31.90
34103;BME280;20381;54.498;18.206;2023-05-24T10:38:59;99695.50;;;41.57;30.65
34103;BME280;20381;54.498;18.206;2023-05-24T10:41:25;99697.91;;;42.44;31.11
34103;BME280;20381;54.498;18.206;2023-05-24T10:43:52;99698.80;;;43.43;29.84
34103;BME280;20381;54.498;18.206;2023-05-24T10:46:20;99705.55;;;44.65;28.88
34103;BME280;20381;54.498;18.206;2023-05-24T10:49:00;99698.94;;;45.32;28.18
34103;BME280;20381;54.498;18.206;2023-05-24T10:51:35;99688.26;;;46.38;27.44
34103;BME280;20381;54.498;18.206;2023-05-24T10:56:44;99701.63;;;43.86;25.60
34103;BME280;20381;54.498;18.206;2023-05-24T10:59:08;99706.39;;;43.56;24.67
34103;BME280;20381;54.498;18.206;2023-05-24T11:01:35;99702.97;;;43.06;23.37
34103;BME280;20381;54.498;18.206;2023-05-24T11:04:07;99702.64;;;41.33;22.83
34103;BME280;20381;54.498;18.206;2023-05-24T11:06:47;99713.23;;;39.85;23.03
34103;BME280;20381;54.498;18.206;2023-05-24T11:09:17;99711.04;;;38.53;22.00
34103;BME280;20381;54.498;18.206;2023-05-24T11:11:52;99721.00;;;36.11;21.86
34103;BME280;20381;54.498;18.206;2023-05-24T11:14:18;99714.91;;;34.72;21.77
34103;BME280;20381;54.498;18.206;2023-05-24T11:16:47;99715.16;;;33.60;22.12
34103;BME280;20381;54.498;18.206;2023-05-24T11:21:49;99704.86;;;33.60;22.63
34103;BME280;20381;54.498;18.206;2023-05-24T11:24:17;99717.33;;;34.14;22.42
34103;BME280;20381;54.498;18.206;2023-05-24T11:26:44;99702.40;;;33.68;22.32
34103;BME280;20381;54.498;18.206;2023-05-24T11:29:15;99708.89;;;34.22;22.87
34103;BME280;20381;54.498;18.206;2023-05-24T11:31:47;99710.02;;;33.96;22.15
34103;BME280;20381;54.498;18.206;2023-05-24T11:34:14;99713.81;;;32.88;22.74
34103;BME280;20381;54.498;18.206;2023-05-24T11:36:43;99710.98;;;33.24;23.04
34103;BME280;20381;54.498;18.206;2023-05-24T11:39:10;99711.28;;;34.02;22.94
34103;BME280;20381;54.498;18.206;2023-05-24T11:41:37;99705.67;;;34.13;22.87
34103;BME280;20381;54.498;18.206;2023-05-24T11:44:05;99709.53;;;33.37;22.45
34103;BME280;20381;54.498;18.206;2023-05-24T11:46:32;99711.06;;;33.01;23.19
34103;BME280;20381;54.498;18.206;2023-05-24T11:48:59;99714.70;;;33.13;23.23
34103;BME280;20381;54.498;18.206;2023-05-24T11:51:32;99710.77;;;33.50;22.99
34103;BME280;20381;54.498;18.206;2023-05-24T11:53:56;99723.24;;;32.79;22.91
34103;BME280;20381;54.498;18.206;2023-05-24T11:56:24;99716.12;;;32.68;23.35
34103;BME280;20381;54.498;18.206;2023-05-24T11:58:58;99720.52;;;32.11;22.89
34103;BME280;20381;54.498;18.206;2023-05-24T12:01:23;99720.39;;;31.39;23.39
34103;BME280;20381;54.498;18.206;2023-05-24T12:03:50;99727.95;;;31.33;23.46
34103;BME280;20381;54.498;18.206;2023-05-24T12:06:20;99719.61;;;30.88;23.44
34103;BME280;20381;54.498;18.206;2023-05-24T12:08:47;99714.66;;;30.30;23.53
34103;BME280;20381;54.498;18.206;2023-05-24T12:11:16;99721.12;;;29.45;23.58
34103;BME280;20381;54.498;18.206;2023-05-24T12:13:46;99727.98;;;28.47;24.12
34103;BME280;20381;54.498;18.206;2023-05-24T12:16:15;99728.94;;;27.76;24.42
34103;BME280;20381;54.498;18.206;2023-05-24T12:18:44;99727.75;;;27.40;24.91
34103;BME280;20381;54.498;18.206;2023-05-24T12:21:10;99718.73;;;27.37;24.99
34103;BME280;20381;54.498;18.206;2023-05-24T12:23:36;99724.63;;;26.87;25.29
34103;BME280;20381;54.498;18.206;2023-05-24T12:26:04;99726.66;;;26.53;25.12
34103;BME280;20381;54.498;18.206;2023-05-24T12:28:34;99726.77;;;26.21;25.60
34103;BME280;20381;54.498;18.206;2023-05-24T12:31:04;99714.70;;;25.69;25.52
34103;BME280;20381;54.498;18.206;2023-05-24T12:33:32;99729.41;;;25.08;26.23
34103;BME280;20381;54.498;18.206;2023-05-24T12:36:00;99725.19;;;24.81;26.20
34103;BME280;20381;54.498;18.206;2023-05-24T12:38:27;99729.81;;;24.58;26.45
34103;BME280;20381;54.498;18.206;2023-05-24T12:40:53;99732.39;;;24.38;27.03
34103;BME280;20381;54.498;18.206;2023-05-24T12:43:20;99729.69;;;24.29;27.54
34103;BME280;20381;54.498;18.206;2023-05-24T12:45:47;99729.69;;;24.29;27.45
34103;BME280;20381;54.498;18.206;2023-05-24T12:48:14;99732.97;;;24.19;27.75
34103;BME280;20381;54.498;18.206;2023-05-24T12:50:41;99732.55;;;24.02;27.95
34103;BME280;20381;54.498;18.206;2023-05-24T12:53:09;99732.41;;;23.77;28.04
34103;BME280;20381;54.498;18.206;2023-05-24T12:55:36;99731.88;;;23.52;28.35
34103;BME280;20381;54.498;18.206;2023-05-24T12:58:02;99727.98;;;23.42;28.47
34103;BME280;20381;54.498;18.206;2023-05-24T13:00:31;99732.31;;;23.43;28.93
34103;BME280;20381;54.498;18.206;2023-05-24T13:03:00;99731.80;;;23.39;29.30
34103;BME280;20381;54.498;18.206;2023-05-24T13:05:30;99724.19;;;23.27;29.30
34103;BME280;20381;54.498;18.206;2023-05-24T13:07:57;99728.23;;;23.13;29.27
34103;BME280;20381;54.498;18.206;2023-05-24T13:10:24;99721.78;;;22.97;29.80
34103;BME280;20381;54.498;18.206;2023-05-24T13:12:50;99724.52;;;23.06;30.29